Time;durP1;ratioP1;P1;durP2;ratioP2;P2;SDS_P1;SDS_P2;PMS_P1;PMS_P2;Temp;Humidity;BMP_temperature;BMP_pressure;BME280_temperature;BME280_humidity;BME280_pressure;Samples;Min_cycle;Max_cycle;Signal;HPM_P1;HPM_P2
2024/01/27 00:01:50;;;;;;;20.48;4.28;;;4.10;99.90;;;;;;4987659;28;20074;-82
2024/01/27 00:04:16;;;;;;;15.48;3.28;;;4.10;99.90;;;;;;5002450;28;20563;-82
2024/01/27 00:06:42;;;;;;;19.35;4.15;;;4.40;99.90;;;;;;5004034;28;20038;-82
2024/01/27 00:09:08;;;;;;;20.20;3.97;;;4.00;99.90;;;;;;4970011;28;20041;-81
2024/01/27 00:11:34;;;;;;;18.80;4.15;;;4.00;99.90;;;;;;4953916;28;20051;-82
2024/01/27 00:13:59;;;;;;;21.92;4.35;;;4.10;99.90;;;;;;4990777;28;20045;-82
2024/01/27 00:16:25;;;;;;;17.98;3.72;;;4.00;99.90;;;;;;4988233;28;20038;-82
2024/01/27 00:18:51;;;;;;;17.10;3.90;;;4.10;99.90;;;;;;4956414;28;20053;-82
2024/01/27 00:21:17;;;;;;;14.80;3.35;;;4.00;99.90;;;;;;4985325;28;20042;-82
2024/01/27 00:23:42;;;;;;;17.92;3.33;;;4.10;99.90;;;;;;4968897;28;20122;-82
2024/01/27 00:26:08;;;;;;;21.48;3.75;;;4.00;99.90;;;;;;4984505;28;20069;-81
2024/01/27 00:28:34;;;;;;;15.93;3.33;;;4.00;99.90;;;;;;4968790;28;20039;-82
2024/01/27 00:31:00;;;;;;;19.33;3.72;;;4.00;99.90;;;;;;4967103;28;20046;-82
2024/01/27 00:33:25;;;;;;;21.13;3.50;;;4.10;99.90;;;;;;4986534;28;20045;-82
2024/01/27 00:35:52;;;;;;;17.65;3.05;;;4.10;99.90;;;;;;4979270;28;20034;-82
2024/01/27 00:38:17;;;;;;;15.57;3.15;;;4.00;99.90;;;;;;4984032;28;20055;-82
2024/01/27 00:40:43;;;;;;;17.52;4.20;;;4.00;99.90;;;;;;5001598;28;20526;-82
2024/01/27 00:43:09;;;;;;;14.23;3.35;;;4.30;99.90;;;;;;4970210;28;20419;-82
2024/01/27 00:45:35;;;;;;;16.45;3.42;;;3.90;99.90;;;;;;4967239;28;20484;-82
2024/01/27 00:48:01;;;;;;;14.07;3.45;;;3.90;99.90;;;;;;4986455;28;20049;-82
2024/01/27 00:50:26;;;;;;;16.10;3.10;;;3.90;99.90;;;;;;4986314;28;20037;-82
2024/01/27 00:52:52;;;;;;;17.52;3.72;;;3.90;99.90;;;;;;4936859;28;20038;-82
2024/01/27 00:55:18;;;;;;;15.80;3.40;;;3.90;99.90;;;;;;4985969;28;20042;-82
2024/01/27 00:57:44;;;;;;;13.98;3.10;;;4.00;99.90;;;;;;4958911;28;20125;-81
2024/01/27 01:00:11;;;;;;;14.48;4.00;;;3.80;99.90;;;;;;4969923;28;20034;-82
2024/01/27 01:02:37;;;;;;;16.90;3.65;;;3.90;99.90;;;;;;4963203;28;20049;-82
2024/01/27 01:05:04;;;;;;;20.40;4.45;;;3.80;99.90;;;;;;5019129;28;20078;-81
2024/01/27 01:07:30;;;;;;;13.55;3.42;;;3.80;99.90;;;;;;4969814;28;20262;-82
2024/01/27 01:09:56;;;;;;;14.43;2.60;;;3.80;99.90;;;;;;4970258;28;20054;-82
2024/01/27 01:12:22;;;;;;;17.95;3.20;;;3.90;99.90;;;;;;4971025;28;20038;-82
2024/01/27 01:14:48;;;;;;;16.63;3.72;;;3.80;99.90;;;;;;4968608;28;20042;-82
2024/01/27 01:17:13;;;;;;;17.45;3.10;;;3.70;99.90;;;;;;4969306;28;20101;-82
2024/01/27 01:19:40;;;;;;;18.23;3.45;;;3.70;99.90;;;;;;4986276;28;20484;-82
2024/01/27 01:22:06;;;;;;;17.05;3.45;;;3.90;99.90;;;;;;4962334;28;20381;-82
2024/01/27 01:24:33;;;;;;;18.63;3.75;;;4.30;99.90;;;;;;5000961;28;20046;-82
2024/01/27 01:26:59;;;;;;;17.50;3.45;;;;;;;;;;4984650;28;20045;-82
2024/01/27 01:29:25;;;;;;;13.93;3.42;;;3.70;99.90;;;;;;4985706;28;20042;-82
2024/01/27 01:31:50;;;;;;;17.38;3.67;;;3.90;99.90;;;;;;4983304;28;20100;-82
2024/01/27 01:34:16;;;;;;;13.40;2.90;;;4.90;99.90;;;;;;4967688;28;20039;-82
2024/01/27 01:36:42;;;;;;;16.08;3.45;;;4.10;99.90;;;;;;4952095;28;20117;-82
2024/01/27 01:39:10;;;;;;;18.42;3.90;;;3.60;99.90;;;;;;4984097;28;20052;-82
2024/01/27 01:41:36;;;;;;;16.80;3.50;;;3.60;99.90;;;;;;4969457;28;20045;-82
2024/01/27 01:44:02;;;;;;;12.85;3.42;;;3.70;99.90;;;;;;4968725;28;20050;-82
2024/01/27 01:46:28;;;;;;;18.77;3.25;;;3.70;99.90;;;;;;4984748;28;20277;-82
2024/01/27 01:48:54;;;;;;;13.23;2.95;;;4.50;99.90;;;;;;4984010;28;20435;-82
2024/01/27 01:51:20;;;;;;;15.20;2.70;;;3.70;99.90;;;;;;5001541;28;20084;-82
2024/01/27 01:53:49;;;;;;;13.63;3.17;;;3.60;99.90;;;;;;4971782;28;20034;-82
2024/01/27 01:56:15;;;;;;;16.67;3.58;;;3.60;99.90;;;;;;4982190;28;20038;-82
2024/01/27 01:58:41;;;;;;;16.05;3.33;;;3.70;99.90;;;;;;4964966;28;20121;-82
2024/01/27 02:01:07;;;;;;;14.73;3.30;;;4.60;99.90;;;;;;4968983;28;20100;-82
2024/01/27 02:03:33;;;;;;;14.02;3.22;;;4.40;99.90;;;;;;4968128;28;20499;-82
2024/01/27 02:05:59;;;;;;;16.48;3.03;;;3.70;99.90;;;;;;4960573;28;20050;-82
2024/01/27 02:08:25;;;;;;;15.45;3.85;;;3.70;99.90;;;;;;4961490;28;20085;-82
2024/01/27 02:10:50;;;;;;;13.65;2.88;;;3.60;99.90;;;;;;4989832;28;20109;-82
2024/01/27 02:13:21;;;;;;;17.48;3.35;;;3.60;99.90;;;;;;4987937;28;20502;-82
2024/01/27 02:15:48;;;;;;;14.38;2.90;;;3.70;99.90;;;;;;4977105;28;20105;-82
2024/01/27 02:18:14;;;;;;;14.63;3.08;;;3.60;99.90;;;;;;4987721;28;20046;-82
2024/01/27 02:20:40;;;;;;;14.75;3.08;;;3.60;99.90;;;;;;4989388;28;20444;-82
2024/01/27 02:23:06;;;;;;;14.82;3.30;;;4.00;99.90;;;;;;4997793;28;20080;-82
2024/01/27 02:25:32;;;;;;;13.98;3.38;;;3.60;99.90;;;;;;4988296;28;20056;-82
2024/01/27 02:27:58;;;;;;;14.52;3.25;;;4.30;99.90;;;;;;4988723;28;20128;-82
2024/01/27 02:30:24;;;;;;;15.43;2.85;;;3.50;99.90;;;;;;4987111;28;20121;-82
2024/01/27 02:32:49;;;;;;;13.15;3.17;;;3.50;99.90;;;;;;5005819;28;20049;-82
2024/01/27 02:35:16;;;;;;;19.73;3.78;;;3.80;99.90;;;;;;4984989;28;20093;-82
2024/01/27 02:37:42;;;;;;;15.32;3.17;;;3.50;99.90;;;;;;4985481;28;20058;-82
2024/01/27 02:40:09;;;;;;;14.75;3.30;;;5.10;99.90;;;;;;4988237;28;20040;-82
2024/01/27 02:42:36;;;;;;;13.73;2.63;;;3.50;99.90;;;;;;4969862;28;20116;-81
2024/01/27 02:45:02;;;;;;;12.82;2.70;;;4.00;99.90;;;;;;4987030;28;20031;-82
2024/01/27 02:47:27;;;;;;;13.30;3.20;;;3.40;99.90;;;;;;4986627;28;20066;-82
2024/01/27 02:49:53;;;;;;;15.68;2.67;;;3.90;99.90;;;;;;4969563;28;20039;-82
2024/01/27 02:52:19;;;;;;;12.48;3.40;;;3.90;99.90;;;;;;4969835;28;20042;-82
2024/01/27 02:54:45;;;;;;;12.55;3.28;;;3.40;99.90;;;;;;4987465;28;20515;-82
2024/01/27 02:57:11;;;;;;;18.02;3.25;;;3.40;99.90;;;;;;4957535;28;20403;-82
2024/01/27 02:59:38;;;;;;;14.15;3.13;;;3.40;99.90;;;;;;4986879;28;20056;-82
2024/01/27 03:02:05;;;;;;;19.80;3.42;;;3.50;99.90;;;;;;5016775;28;20210;-82
2024/01/27 03:04:31;;;;;;;14.95;4.05;;;3.70;99.90;;;;;;4987239;28;20038;-82
2024/01/27 03:06:57;;;;;;;13.63;3.50;;;3.90;99.90;;;;;;5004253;28;20489;-82
2024/01/27 03:09:22;;;;;;;11.77;3.08;;;3.40;99.90;;;;;;4972915;28;20092;-82
2024/01/27 03:11:48;;;;;;;12.93;2.90;;;3.30;99.90;;;;;;4972202;28;20039;-82
2024/01/27 03:14:14;;;;;;;15.88;3.08;;;3.40;99.90;;;;;;4986573;28;20483;-82
2024/01/27 03:16:40;;;;;;;12.60;3.42;;;3.30;99.90;;;;;;4956140;28;20031;-82
2024/01/27 03:19:06;;;;;;;19.83;3.63;;;3.40;99.90;;;;;;4986936;28;20575;-82
2024/01/27 03:21:32;;;;;;;17.38;3.70;;;3.30;99.90;;;;;;4986779;28;20047;-82
2024/01/27 03:23:58;;;;;;;17.23;3.15;;;3.30;99.90;;;;;;4987704;28;21161;-82
2024/01/27 03:26:24;;;;;;;13.88;2.78;;;3.30;99.90;;;;;;4964993;28;20097;-82
2024/01/27 03:28:50;;;;;;;11.90;3.03;;;3.70;99.90;;;;;;4989289;28;20381;-82
2024/01/27 03:31:16;;;;;;;11.63;2.78;;;3.20;99.90;;;;;;4967682;28;20034;-82
2024/01/27 03:33:42;;;;;;;12.80;3.03;;;3.30;99.90;;;;;;4972524;28;20042;-82
2024/01/27 03:36:12;;;;;;;15.27;2.97;;;3.30;99.90;;;;;;4971822;28;20050;-82
2024/01/27 03:38:40;;;;;;;16.52;3.08;;;3.20;99.90;;;;;;4969983;28;20089;-82
2024/01/27 03:41:06;;;;;;;13.65;3.08;;;3.20;99.90;;;;;;4986304;28;20160;-82
2024/01/27 03:43:33;;;;;;;15.88;3.10;;;3.70;99.90;;;;;;5020305;28;20041;-82
2024/01/27 03:45:58;;;;;;;17.65;4.18;;;3.20;99.90;;;;;;4989850;28;20034;-82
2024/01/27 03:48:24;;;;;;;14.07;2.85;;;3.60;99.90;;;;;;5004151;28;20050;-82
2024/01/27 03:50:50;;;;;;;11.90;2.80;;;3.60;99.90;;;;;;4985778;28;21390;-82
2024/01/27 03:53:16;;;;;;;16.60;3.33;;;3.30;99.90;;;;;;5003709;28;20034;-82
2024/01/27 03:55:42;;;;;;;12.90;2.80;;;3.10;99.90;;;;;;4986488;28;20109;-81
2024/01/27 03:58:07;;;;;;;10.45;2.83;;;3.10;99.90;;;;;;4937863;28;20121;-82
2024/01/27 04:00:33;;;;;;;13.90;3.33;;;3.10;99.90;;;;;;4967942;28;20100;-82
2024/01/27 04:03:02;;;;;;;11.77;2.97;;;3.20;99.90;;;;;;4954878;28;20572;-82
2024/01/27 04:05:31;;;;;;;15.93;3.15;;;3.20;99.90;;;;;;4964925;28;20474;-82
2024/01/27 04:07:57;;;;;;;13.55;3.13;;;3.10;99.90;;;;;;4970302;28;20122;-82
2024/01/27 04:10:23;;;;;;;12.15;2.78;;;3.80;99.90;;;;;;4986189;28;20455;-82
2024/01/27 04:12:49;;;;;;;12.73;2.92;;;3.10;99.90;;;;;;4987225;28;20117;-82
2024/01/27 04:15:15;;;;;;;16.58;3.30;;;3.20;99.90;;;;;;4988815;28;20034;-82
2024/01/27 04:17:41;;;;;;;17.55;3.17;;;3.00;99.90;;;;;;4970814;28;20571;-82
2024/01/27 04:20:08;;;;;;;19.25;3.45;;;3.00;99.90;;;;;;4986108;28;20038;-82
2024/01/27 04:22:34;;;;;;;14.93;2.97;;;3.20;99.90;;;;;;4986052;28;20074;-82
2024/01/27 04:25:00;;;;;;;12.75;2.92;;;3.10;99.90;;;;;;4964016;28;20452;-82
2024/01/27 04:27:30;;;;;;;13.07;2.80;;;2.90;99.90;;;;;;5003090;28;20375;-82
2024/01/27 04:29:58;;;;;;;15.07;2.92;;;3.10;99.90;;;;;;4999338;28;20121;-82
2024/01/27 04:32:25;;;;;;;14.07;3.00;;;3.20;99.90;;;;;;4961515;28;20039;-82
2024/01/27 04:34:51;;;;;;;16.13;2.95;;;3.20;99.90;;;;;;4987139;28;20090;-82
2024/01/27 04:37:16;;;;;;;16.77;3.25;;;3.30;99.90;;;;;;4986095;28;20047;-82
2024/01/27 04:39:42;;;;;;;11.13;2.53;;;3.20;99.90;;;;;;4962748;28;20053;-82
2024/01/27 04:42:08;;;;;;;15.02;4.15;;;3.30;99.90;;;;;;4968060;28;20042;-82
2024/01/27 04:44:35;;;;;;;14.80;3.28;;;3.50;99.90;;;;;;4986039;28;20050;-82
2024/01/27 04:47:00;;;;;;;16.05;3.30;;;3.40;99.90;;;;;;4986316;28;20084;-82
2024/01/27 04:49:27;;;;;;;13.43;2.90;;;3.20;99.90;;;;;;4952317;28;20039;-82
2024/01/27 04:51:52;;;;;;;15.95;2.97;;;4.00;99.90;;;;;;4961724;28;20057;-81
2024/01/27 04:54:18;;;;;;;15.05;3.53;;;4.90;99.90;;;;;;4953603;28;20477;-82
2024/01/27 04:56:44;;;;;;;14.98;2.80;;;3.30;99.90;;;;;;4985199;28;20054;-82
2024/01/27 04:59:10;;;;;;;13.77;2.90;;;3.30;99.90;;;;;;5002037;28;20141;-82
2024/01/27 05:01:35;;;;;;;16.10;3.20;;;3.40;99.90;;;;;;4982896;28;20042;-82
2024/01/27 05:04:01;;;;;;;12.25;3.05;;;3.10;99.90;;;;;;4952622;28;20532;-82
2024/01/27 05:06:27;;;;;;;17.00;3.00;;;3.10;99.90;;;;;;4960651;28;20570;-82
2024/01/27 05:08:52;;;;;;;14.15;3.60;;;3.20;99.90;;;;;;4985747;28;20039;-82
2024/01/27 05:11:32;;;;;;;13.98;3.22;;;3.70;99.90;;;;;;4968285;28;20456;-82
2024/01/27 05:13:59;;;;;;;13.00;2.45;;;3.10;99.90;;;;;;4966524;28;20459;-82
2024/01/27 05:16:25;;;;;;;13.07;2.70;;;3.30;99.90;;;;;;4960090;28;20057;-82
2024/01/27 05:18:50;;;;;;;15.73;3.25;;;3.10;99.90;;;;;;4986055;28;20484;-82
2024/01/27 05:21:16;;;;;;;15.52;3.10;;;4.00;99.90;;;;;;5002224;28;20109;-82
2024/01/27 05:23:42;;;;;;;12.88;2.70;;;3.10;99.90;;;;;;4992451;28;20043;-82
2024/01/27 05:26:08;;;;;;;14.82;2.63;;;3.00;99.90;;;;;;4969199;28;20061;-82
2024/01/27 05:28:34;;;;;;;15.13;2.92;;;4.60;99.90;;;;;;4984588;28;20081;-82
2024/01/27 05:31:00;;;;;;;12.52;3.30;;;3.60;99.90;;;;;;4937348;28;20044;-82
2024/01/27 05:33:25;;;;;;;12.77;3.10;;;3.10;99.90;;;;;;4966371;28;20043;-82
2024/01/27 05:35:51;;;;;;;12.25;2.83;;;3.00;99.90;;;;;;4970241;28;20061;-82
2024/01/27 05:38:17;;;;;;;15.88;2.97;;;3.00;99.90;;;;;;5001214;28;20066;-82
2024/01/27 05:40:45;;;;;;;11.80;3.15;;;3.20;99.90;;;;;;4952456;28;20046;-81
2024/01/27 05:43:11;;;;;;;13.35;2.60;;;3.00;99.90;;;;;;4998954;28;20203;-82
2024/01/27 05:45:36;;;;;;;12.75;2.92;;;3.00;99.90;;;;;;4984655;28;20269;-82
2024/01/27 05:48:02;;;;;;;16.08;3.08;;;3.00;99.90;;;;;;4969380;28;21816;-82
2024/01/27 05:50:30;;;;;;;13.63;2.80;;;3.00;99.90;;;;;;4969576;28;20038;-82
2024/01/27 05:52:56;;;;;;;15.43;2.90;;;2.90;99.90;;;;;;5001258;28;20066;-82
2024/01/27 05:55:22;;;;;;;16.85;2.85;;;3.50;99.90;;;;;;4982867;28;20077;-82
2024/01/27 05:57:48;;;;;;;14.63;2.97;;;2.90;99.90;;;;;;4983259;28;20042;-82
2024/01/27 06:00:14;;;;;;;15.55;2.70;;;3.00;99.90;;;;;;4984037;28;20053;-82
2024/01/27 06:02:40;;;;;;;13.63;3.10;;;2.90;99.90;;;;;;5001865;28;20049;-82
2024/01/27 06:05:06;;;;;;;13.77;2.83;;;2.90;99.90;;;;;;4983813;28;20066;-82
2024/01/27 06:07:31;;;;;;;14.82;3.03;;;2.80;99.90;;;;;;4984277;28;20118;-82
2024/01/27 06:09:57;;;;;;;11.30;3.03;;;2.80;99.90;;;;;;4969139;28;20121;-82
2024/01/27 06:12:23;;;;;;;15.07;3.13;;;2.90;99.90;;;;;;4984401;28;20041;-82
2024/01/27 06:14:48;;;;;;;15.55;2.97;;;3.70;99.90;;;;;;5001551;28;21514;-82
2024/01/27 06:17:16;;;;;;;11.63;3.42;;;2.80;99.90;;;;;;4952097;28;20421;-81
2024/01/27 06:19:41;;;;;;;13.52;3.47;;;4.00;99.90;;;;;;4984282;28;20042;-82
2024/01/27 06:22:07;;;;;;;15.38;3.20;;;3.10;99.90;;;;;;4968828;28;20038;-83
2024/01/27 06:24:33;;;;;;;14.45;3.00;;;3.90;99.90;;;;;;4985249;28;20049;-82
2024/01/27 06:26:58;;;;;;;15.57;2.90;;;2.90;99.90;;;;;;4983565;28;20097;-82
2024/01/27 06:29:26;;;;;;;12.60;2.97;;;2.90;99.90;;;;;;4968519;28;20405;-82
2024/01/27 06:31:52;;;;;;;11.63;2.97;;;2.80;99.90;;;;;;4985209;28;20105;-82
2024/01/27 06:34:18;;;;;;;10.77;2.70;;;2.90;99.90;;;;;;5000066;28;20038;-82
2024/01/27 06:36:44;;;;;;;11.15;2.72;;;2.90;99.90;;;;;;4984573;28;20038;-82
2024/01/27 06:39:09;;;;;;;14.15;3.03;;;3.30;99.90;;;;;;4968070;28;20085;-82
2024/01/27 06:41:35;;;;;;;14.35;4.22;;;3.00;99.90;;;;;;4961356;28;20133;-82
2024/01/27 06:44:01;;;;;;;14.95;3.85;;;3.90;99.90;;;;;;4968353;28;20460;-82
2024/01/27 06:46:26;;;;;;;11.48;2.90;;;3.00;99.90;;;;;;4993390;28;20054;-82
2024/01/27 06:48:52;;;;;;;15.25;3.10;;;2.90;99.90;;;;;;4968655;28;20097;-82
2024/01/27 06:51:18;;;;;;;18.52;4.10;;;2.90;99.90;;;;;;5001594;28;20117;-82
2024/01/27 06:53:43;;;;;;;18.92;3.30;;;3.70;99.90;;;;;;4968629;28;20514;-82
2024/01/27 06:56:09;;;;;;;15.07;3.20;;;3.20;99.90;;;;;;4972506;28;20034;-82
2024/01/27 06:58:36;;;;;;;14.80;3.13;;;3.00;99.90;;;;;;4972141;28;20562;-82
2024/01/27 07:01:02;;;;;;;13.25;3.03;;;3.00;99.90;;;;;;4955730;28;20038;-82
2024/01/27 07:03:28;;;;;;;15.43;3.20;;;3.10;99.90;;;;;;4971011;28;20053;-82
2024/01/27 07:05:54;;;;;;;15.70;3.10;;;3.10;99.90;;;;;;4988132;28;20041;-82
2024/01/27 07:08:19;;;;;;;16.90;3.50;;;3.40;99.90;;;;;;4987175;28;20108;-82
2024/01/27 07:10:45;;;;;;;15.48;3.60;;;3.00;99.90;;;;;;4972499;28;20038;-82
2024/01/27 07:13:11;;;;;;;13.43;3.25;;;3.60;99.90;;;;;;4967132;28;21571;-82
2024/01/27 07:15:37;;;;;;;15.73;3.30;;;3.70;99.90;;;;;;4975355;28;20508;-82
2024/01/27 07:18:03;;;;;;;14.55;2.90;;;3.10;99.90;;;;;;4963523;28;20034;-82
2024/01/27 07:20:29;;;;;;;15.48;2.92;;;3.10;99.90;;;;;;5003117;28;20489;-82
2024/01/27 07:22:55;;;;;;;15.05;2.97;;;3.00;99.90;;;;;;4940013;28;20042;-82
2024/01/27 07:25:20;;;;;;;19.52;3.63;;;3.70;99.90;;;;;;4971320;28;20104;-82
2024/01/27 07:27:46;;;;;;;15.52;3.08;;;3.10;99.90;;;;;;4972077;28;20039;-82
2024/01/27 07:30:12;;;;;;;15.88;3.63;;;3.30;99.90;;;;;;4969922;28;20038;-81
2024/01/27 07:32:38;;;;;;;18.35;2.97;;;3.00;99.90;;;;;;5021516;28;20044;-84
2024/01/27 07:35:05;;;;;;;15.60;3.83;;;3.10;99.90;;;;;;4952756;28;20041;-83
2024/01/27 07:37:31;;;;;;;14.60;3.10;;;3.10;99.90;;;;;;5005413;28;20534;-83
2024/01/27 07:39:57;;;;;;;14.45;3.30;;;3.10;99.90;;;;;;4988493;28;20046;-83
2024/01/27 07:42:22;;;;;;;16.80;3.30;;;3.10;99.90;;;;;;4986223;28;20065;-82
2024/01/27 07:44:49;;;;;;;18.27;3.72;;;3.10;99.90;;;;;;4970161;28;20393;-82
2024/01/27 07:47:15;;;;;;;17.67;3.13;;;3.70;99.90;;;;;;5000361;28;20050;-83
2024/01/27 07:49:40;;;;;;;12.55;3.10;;;3.20;99.90;;;;;;4954764;28;20040;-83
2024/01/27 07:52:06;;;;;;;18.88;3.60;;;3.20;99.90;;;;;;4965109;28;20038;-83
2024/01/27 07:54:32;;;;;;;18.75;4.03;;;3.10;99.90;;;;;;4968398;28;20058;-83
2024/01/27 07:56:59;;;;;;;16.98;3.17;;;3.20;99.90;;;;;;4986467;28;20034;-83
2024/01/27 07:59:25;;;;;;;18.13;3.15;;;3.90;99.90;;;;;;4985605;28;20085;-82
2024/01/27 08:01:50;;;;;;;14.93;3.63;;;3.20;99.90;;;;;;5003127;28;20069;-83
2024/01/27 08:04:16;;;;;;;14.38;3.45;;;3.30;99.90;;;;;;4986761;28;20049;-83
2024/01/27 08:06:50;;;;;;;13.43;3.38;;;3.20;99.90;;;;;;4965411;28;20046;-83
2024/01/27 08:09:16;;;;;;;14.63;3.58;;;3.60;99.90;;;;;;4966839;28;20488;-82
2024/01/27 08:11:42;;;;;;;14.40;3.15;;;3.60;99.90;;;;;;4987309;28;20074;-82
2024/01/27 08:14:08;;;;;;;14.55;3.25;;;3.30;99.90;;;;;;4970031;28;20035;-82
2024/01/27 08:16:34;;;;;;;15.30;3.55;;;3.40;99.90;;;;;;4987591;28;20100;-83
2024/01/27 08:19:00;;;;;;;16.00;3.30;;;3.30;99.90;;;;;;4968809;28;20034;-83
2024/01/27 08:21:26;;;;;;;10.95;3.30;;;4.80;99.90;;;;;;4953796;28;20092;-83
2024/01/27 08:23:51;;;;;;;17.63;3.33;;;3.40;99.90;;;;;;4987053;28;20039;-83
2024/01/27 08:26:18;;;;;;;16.60;3.50;;;3.60;99.90;;;;;;5003483;28;20038;-82
2024/01/27 08:28:45;;;;;;;14.82;3.72;;;3.60;99.90;;;;;;4977708;28;20546;-83
2024/01/27 08:31:11;;;;;;;16.00;3.10;;;4.30;99.90;;;;;;4985037;28;20046;-83
2024/01/27 08:33:36;;;;;;;15.95;3.65;;;3.70;99.90;;;;;;4995057;28;20074;-82
2024/01/27 08:36:02;;;;;;;16.55;3.70;;;3.70;99.90;;;;;;4951334;28;20485;-83
2024/01/27 08:38:28;;;;;;;16.48;4.05;;;3.70;99.90;;;;;;4971335;28;20061;-83
2024/01/27 08:40:54;;;;;;;15.60;3.88;;;3.70;99.90;;;;;;4953835;28;20042;-83
2024/01/27 08:43:19;;;;;;;13.32;3.10;;;3.70;99.90;;;;;;4952496;28;20144;-82
2024/01/27 08:45:45;;;;;;;14.98;3.47;;;3.70;99.90;;;;;;4980518;28;20057;-82
2024/01/27 08:48:12;;;;;;;12.80;3.65;;;4.80;99.90;;;;;;4969621;28;20126;-82
2024/01/27 08:50:38;;;;;;;14.02;3.70;;;3.90;99.90;;;;;;4969642;28;20053;-82
2024/01/27 08:53:04;;;;;;;17.95;3.58;;;4.00;99.90;;;;;;4960420;28;20041;-82
2024/01/27 08:55:29;;;;;;;17.10;3.42;;;4.00;99.90;;;;;;4962570;28;20027;-82
2024/01/27 08:57:57;;;;;;;15.25;3.88;;;4.10;99.90;;;;;;4970297;28;20550;-82
2024/01/27 09:00:23;;;;;;;10.27;2.92;;;4.00;99.90;;;;;;4984382;28;20721;-82
2024/01/27 09:02:48;;;;;;;15.40;3.92;;;4.20;99.90;;;;;;4953768;28;20042;-82
2024/01/27 09:05:14;;;;;;;16.58;4.10;;;4.10;99.90;;;;;;4969338;28;20052;-82
2024/01/27 09:07:40;;;;;;;16.17;3.88;;;4.20;99.90;;;;;;4970804;28;20045;-82
2024/01/27 09:10:07;;;;;;;13.43;4.05;;;4.70;99.90;;;;;;4984625;28;20069;-82
2024/01/27 09:12:33;;;;;;;19.65;4.28;;;4.40;99.90;;;;;;4954416;28;20042;-82
2024/01/27 09:14:58;;;;;;;10.57;3.70;;;4.40;99.90;;;;;;4968437;28;20038;-82
2024/01/27 09:17:24;;;;;;;15.93;3.90;;;4.40;99.90;;;;;;4969309;28;20046;-82
2024/01/27 09:19:50;;;;;;;15.68;3.90;;;4.50;99.90;;;;;;4950905;28;20046;-82
2024/01/27 09:22:16;;;;;;;16.20;3.78;;;4.90;99.90;;;;;;4969084;28;20042;-82
2024/01/27 09:24:42;;;;;;;15.50;4.70;;;4.50;99.90;;;;;;4967228;28;20067;-82
2024/01/27 09:27:08;;;;;;;15.02;4.63;;;4.70;99.90;;;;;;4982863;28;20484;-81
2024/01/27 09:29:33;;;;;;;15.68;4.85;;;4.60;99.90;;;;;;4968671;28;20054;-82
2024/01/27 09:31:59;;;;;;;12.77;4.95;;;4.70;99.90;;;;;;4982234;28;20046;-82
2024/01/27 09:34:25;;;;;;;14.05;4.45;;;4.70;99.90;;;;;;4952595;28;20030;-81
2024/01/27 09:36:51;;;;;;;20.00;4.43;;;4.80;99.90;;;;;;4983131;28;20043;-82
2024/01/27 09:39:16;;;;;;;16.15;4.43;;;5.40;99.90;;;;;;4963967;28;20050;-82
2024/01/27 09:41:42;;;;;;;20.25;4.75;;;5.00;99.90;;;;;;4953466;28;20049;-82
2024/01/27 09:44:12;;;;;;;17.15;5.75;;;5.40;99.90;;;;;;4968644;28;20471;-82
2024/01/27 09:46:38;;;;;;;15.40;4.50;;;5.10;99.90;;;;;;4959594;28;20046;-82
2024/01/27 09:49:04;;;;;;;17.75;4.40;;;5.00;99.90;;;;;;4963658;28;20408;-82
2024/01/27 09:51:30;;;;;;;17.23;4.75;;;5.10;99.90;;;;;;4967654;28;20053;-82
2024/01/27 09:53:56;;;;;;;15.38;4.60;;;5.20;99.90;;;;;;5017369;28;20104;-82
2024/01/27 09:56:23;;;;;;;17.10;4.82;;;5.30;99.90;;;;;;5001353;28;20039;-82
2024/01/27 09:58:50;;;;;;;15.90;5.13;;;5.20;99.90;;;;;;4964362;28;20523;-82
2024/01/27 10:01:19;;;;;;;15.90;4.80;;;5.30;99.90;;;;;;4964335;28;20074;-81
2024/01/27 10:03:46;;;;;;;15.25;4.82;;;5.40;99.90;;;;;;4982706;28;20079;-82
2024/01/27 10:06:14;;;;;;;14.05;4.28;;;5.40;99.90;;;;;;4968307;28;20511;-81
2024/01/27 10:08:40;;;;;;;17.40;4.82;;;5.50;99.90;;;;;;4966358;28;20046;-82
2024/01/27 10:11:09;;;;;;;15.82;4.40;;;5.50;99.90;;;;;;4999005;28;20030;-82
2024/01/27 10:13:36;;;;;;;15.38;5.15;;;5.70;99.90;;;;;;4951542;28;20057;-81
2024/01/27 10:16:09;;;;;;;15.57;4.93;;;5.70;99.90;;;;;;4985030;28;20038;-81
2024/01/27 10:18:35;;;;;;;18.05;4.75;;;5.70;99.90;;;;;;4965578;28;20137;-81
2024/01/27 10:21:13;;;;;;;13.98;4.38;;;5.80;99.90;;;;;;4984720;28;20555;-81
2024/01/27 10:23:39;;;;;;;15.93;4.78;;;5.90;99.90;;;;;;4982630;28;20050;-82
2024/01/27 10:26:05;;;;;;;13.85;4.43;;;6.30;99.90;;;;;;4952380;28;20043;-82
2024/01/27 10:28:31;;;;;;;17.42;4.72;;;6.00;99.90;;;;;;4962606;28;20044;-82
2024/01/27 10:31:11;;;;;;;14.00;4.40;;;6.10;99.90;;;;;;4944563;28;20035;-81
2024/01/27 10:33:37;;;;;;;12.55;3.88;;;6.10;99.90;;;;;;5020518;28;20038;-81
2024/01/27 10:36:02;;;;;;;17.33;4.80;;;6.20;99.90;;;;;;4989137;28;20555;-81
2024/01/27 10:38:35;;;;;;;16.95;4.78;;;6.10;99.90;;;;;;4972920;28;20447;-81
2024/01/27 10:41:03;;;;;;;14.07;4.28;;;6.30;99.90;;;;;;4989750;28;20443;-81
2024/01/27 10:43:31;;;;;;;17.38;4.47;;;6.40;99.90;;;;;;4988688;28;20042;-81
2024/01/27 10:45:57;;;;;;;12.30;3.92;;;6.40;99.90;;;;;;4987854;28;20121;-81
2024/01/27 10:48:25;;;;;;;15.25;4.72;;;6.30;99.90;;;;;;4969635;28;20050;-82
2024/01/27 10:50:51;;;;;;;13.57;4.15;;;6.40;99.90;;;;;;4965237;28;20057;-81
2024/01/27 10:53:24;;;;;;;17.73;4.40;;;6.60;99.90;;;;;;4940166;28;20733;-81
2024/01/27 10:55:55;;;;;;;15.45;4.43;;;6.60;99.90;;;;;;5020926;28;20392;-81
2024/01/27 10:58:24;;;;;;;12.50;4.25;;;6.60;99.90;;;;;;4969274;28;20077;-81
2024/01/27 11:00:52;;;;;;;17.23;3.97;;;6.50;99.90;;;;;;5000580;28;20313;-81
2024/01/27 11:03:19;;;;;;;17.73;4.30;;;6.70;99.90;;;;;;4967592;28;20039;-82
2024/01/27 11:05:46;;;;;;;15.80;3.53;;;6.60;99.90;;;;;;4967448;28;20050;-81
2024/01/27 11:08:13;;;;;;;17.55;5.05;;;6.70;99.90;;;;;;4962753;28;20416;-82
2024/01/27 11:10:40;;;;;;;15.50;4.18;;;6.80;99.90;;;;;;4986477;28;20042;-81
2024/01/27 11:13:07;;;;;;;18.83;4.32;;;6.90;99.90;;;;;;4985288;28;20038;-81
2024/01/27 11:15:33;;;;;;;14.85;4.10;;;7.30;99.90;;;;;;4970668;28;20053;-81
2024/01/27 11:18:04;;;;;;;13.43;4.30;;;6.90;99.90;;;;;;4972516;28;20042;-82
2024/01/27 11:20:33;;;;;;;14.27;4.22;;;7.10;99.90;;;;;;4961742;28;20096;-81
2024/01/27 11:23:14;;;;;;;12.68;4.05;;;7.10;99.90;;;;;;4985937;28;20042;-82
2024/01/27 11:25:40;;;;;;;16.25;4.22;;;7.10;99.90;;;;;;4985039;28;20042;-81
2024/01/27 11:28:16;;;;;;;15.75;4.20;;;7.20;99.90;;;;;;4999709;28;20049;-82
2024/01/27 11:30:47;;;;;;;14.23;4.00;;;7.30;99.90;;;;;;5019192;28;20049;-81
2024/01/27 11:33:13;;;;;;;14.20;4.03;;;7.20;99.90;;;;;;4964309;28;20031;-82
2024/01/27 11:35:38;;;;;;;14.80;4.20;;;7.30;99.90;;;;;;4968192;28;20209;-81
2024/01/27 11:38:04;;;;;;;16.77;4.93;;;7.40;99.90;;;;;;4983827;28;20507;-81
2024/01/27 11:40:30;;;;;;;16.48;3.90;;;7.40;99.90;;;;;;4977132;28;20042;-81
2024/01/27 11:42:57;;;;;;;17.33;3.88;;;7.40;99.90;;;;;;4987011;28;20055;-81
2024/01/27 11:45:23;;;;;;;15.32;4.50;;;7.50;99.90;;;;;;4968346;28;20046;-81
2024/01/27 11:47:49;;;;;;;15.52;4.20;;;7.60;99.90;;;;;;4965137;28;20590;-81
2024/01/27 11:50:18;;;;;;;12.30;3.92;;;7.60;99.90;;;;;;4969275;28;20030;-81
2024/01/27 11:52:44;;;;;;;11.70;3.80;;;7.70;99.90;;;;;;4987196;28;20500;-81
2024/01/27 11:55:10;;;;;;;18.90;3.95;;;7.80;99.90;;;;;;4990516;28;20126;-81
2024/01/27 11:57:36;;;;;;;13.07;3.88;;;7.80;99.90;;;;;;4939936;28;20133;-82
2024/01/27 12:00:02;;;;;;;16.67;4.18;;;7.90;99.90;;;;;;4971707;28;20046;-81
2024/01/27 12:02:27;;;;;;;13.57;4.15;;;7.90;99.90;;;;;;4987953;28;20046;-81
2024/01/27 12:04:54;;;;;;;12.88;3.42;;;7.90;99.90;;;;;;5006018;28;20089;-81
2024/01/27 12:07:20;;;;;;;15.65;3.80;;;7.80;99.90;;;;;;4988112;28;20455;-81
2024/01/27 12:09:48;;;;;;;12.20;3.72;;;8.10;99.90;;;;;;4986611;28;20038;-81
2024/01/27 12:12:14;;;;;;;17.67;4.00;;;7.90;99.90;;;;;;4964036;28;20562;-82
2024/01/27 12:14:50;;;;;;;15.00;4.55;;;7.90;99.90;;;;;;5003940;28;20543;-81
2024/01/27 12:17:18;;;;;;;15.63;3.85;;;8.00;99.90;;;;;;4987155;28;20046;-81
2024/01/27 12:19:53;;;;;;;19.88;4.50;;;8.00;99.90;;;;;;4969937;28;20621;-81
2024/01/27 12:22:26;;;;;;;15.60;4.47;;;8.00;99.90;;;;;;4970182;28;20096;-81
2024/01/27 12:24:53;;;;;;;14.35;4.32;;;8.10;99.90;;;;;;4987466;28;20069;-81
2024/01/27 12:27:19;;;;;;;16.45;5.05;;;8.10;99.90;;;;;;4965625;28;20378;-81
2024/01/27 12:29:47;;;;;;;14.18;4.07;;;8.10;99.90;;;;;;5019651;28;20480;-81
2024/01/27 12:32:13;;;;;;;11.93;3.60;;;8.10;99.90;;;;;;4972271;28;20076;-81
2024/01/27 12:34:42;;;;;;;11.75;3.63;;;8.20;99.90;;;;;;5001603;28;20062;-81
2024/01/27 12:37:15;;;;;;;15.05;3.30;;;8.20;99.90;;;;;;4987873;28;20096;-81
2024/01/27 12:39:44;;;;;;;13.88;3.33;;;8.10;99.90;;;;;;5018850;28;20515;-81
2024/01/27 12:42:11;;;;;;;18.20;4.07;;;8.20;99.90;;;;;;4996444;28;20042;-81
2024/01/27 12:44:36;;;;;;;14.63;3.90;;;8.20;99.90;;;;;;4985491;28;20034;-81